x

Halibut Bank (46146) Wave Buoy

4:00am - Tue 23rd May 2017 All times are PDT. -7 hours from GMT.

  • Sig Wave height 0.3ft
  • Peak Period 3s
  • Wind
    7mph, 7mph gusts
  • Sea Temp 61°f
  • 空気 Temp 61°f
  • Sea Pressure 1016.2mb
  • Halibut Bank
  • Halibut Bank

More Historic Weather Station data

Upgrade to MSW Pro to gain access to the past 30 days of data for over 8000 Wavebouys and Weather Stations around the globe.

Join Pro

Comparision Forecast

View Surf forecast
   
Tue 05/23 4:00am 0.3ft 3s 7 7 mph 1016.2mb 61f 61f
3:00am 0.3ft 3s 4 4 mph 1016.3mb 62f 62f
2:00am 0.3ft 6s 4 4 mph 1016.3mb 62f 62f
1:00am 0.3ft 3s 4 7 mph 1016.4mb 61f 63f
12:00am 0.3ft 3s 4 7 mph 1016.6mb 62f 63f
Mon 05/22 11:00pm 0.3ft 7s 2 4 mph 1016.6mb 63f 64f
10:00pm 0.3ft 3s 4 4 mph 1016.8mb 64f 64f
9:00pm 0.3ft 4s 7 9 mph 1017mb 63f 65f
8:00pm 0.3ft 4s 9 9 mph 1017.1mb 63f 66f
7:00pm 0.7ft 7s 4 7 mph 1017.5mb 64f 64f
6:00pm 0.3ft 6s 4 4 mph 1017.8mb 64f 65f
5:00pm 0.7ft 6s 4 7 mph 1018.5mb 63f 64f
4:00pm 0.3ft 2s 2 4 mph 1019.3mb 62f 63f
3:00pm 0.7ft 2s 7 9 mph 1020mb 62f 62f
2:00pm 0.7ft 2s 4 4 mph 1020.6mb 61f 61f
1:00pm 0.7ft 3s 9 9 mph 1021.5mb 60f 61f
12:00pm 0.7ft 2s 7 9 mph 1021.8mb 59f 60f
11:00am 0.7ft 2s 9 13 mph 1022.4mb 59f 59f
10:00am 0.3ft 2s 4 7 mph 1022.5mb 59f 59f
9:00am 0.3ft 7s 7 9 mph 1023.2mb 58f 58f
8:00am 0.3ft 4s 4 4 mph 1022.9mb 58f 59f
7:00am 0.3ft 3s 7 7 mph 1022.8mb 58f 58f
6:00am 0.3ft 3s 4 7 mph 1022.5mb 59f 59f
5:00am 0.3ft 4s 4 4 mph 1022.6mb 58f 58f
4:00am 0.3ft 2s 2 4 mph 1022.6mb 58f 59f
3:00am 0.3ft 2s 9 9 mph 1022.3mb 58f 61f
2:00am 0.3ft 2s 7 9 mph 1022.2mb 58f 62f
1:00am 0.3ft 2s 9 11 mph 1022mb 58f 62f
12:00am 0.7ft 2s 11 11 mph 1021.9mb 58f 61f
Sun 05/21 11:00pm 0.7ft 2s 11 13 mph 1021.9mb 58f 63f
10:00pm 1ft 2s 13 16 mph 1021.7mb 58f 62f
9:00pm 1ft 2s 16 18 mph 1021.6mb 58f 63f
8:00pm 1ft 3s 13 16 mph 1021.7mb 58f 62f
7:00pm 1.3ft 3s 13 16 mph 1022mb 58f 62f
6:00pm 1ft 3s 13 16 mph 1022.3mb 59f 61f
5:00pm 1.3ft 3s 13 16 mph 1022.8mb 59f 61f
4:00pm 1ft 2s 13 16 mph 1023.3mb 58f 60f
3:00pm 1ft 2s 13 16 mph 1023.9mb 58f 60f
2:00pm 0.7ft 2s 13 13 mph 1024.2mb 59f 60f
1:00pm 0.7ft 4s 9 11 mph 1024.5mb 59f 60f
12:00pm 0.3ft 4s 9 11 mph 1025.1mb 59f 59f
11:00am 0.3ft 4s 9 9 mph 1025.3mb 58f 58f
10:00am 0.3ft 3s 7 7 mph 1025.4mb 58f 58f
9:00am 0.3ft 3s 4 4 mph 1025.4mb 59f 57f
8:00am 0.3ft 4s 2 4 mph 1025.3mb 58f 58f
7:00am 0.3ft 5s 4 7 mph 1025mb 57f 58f
6:00am  -  4s 4 4 mph 1024.6mb 56f 59f
5:00am 0.3ft 4s 4 7 mph 1024.7mb 56f 59f
4:00am 0.3ft 3s 4 4 mph 1024.3mb 56f 59f
3:00am 0.3ft 2s 7 7 mph 1023.9mb 56f 58f
2:00am 0.3ft 2s 7 7 mph 1023.4mb 56f 60f
1:00am 0.3ft 3s 2 2 mph 1022.8mb 56f 61f
12:00am 0.3ft 2s 4 4 mph 1022.4mb 57f 61f
Sat 05/20 11:00pm 0.7ft 2s 9 11 mph 1021.9mb 58f 60f
10:00pm 0.7ft 2s 13 16 mph 1021.4mb 58f 62f
9:00pm 1ft 6s 13 16 mph 1021.1mb 58f 63f
8:00pm 0.7ft 2s 13 16 mph 1020.9mb 58f 62f
7:00pm 1ft 2s 13 13 mph 1021mb 58f 61f
6:00pm 1ft 2s 13 16 mph 1021.2mb 57f 61f
5:00pm 1ft 2s 13 13 mph 1021.5mb 57f 60f
4:00pm 0.7ft 2s 11 13 mph 1021.8mb 57f 60f
3:00pm 0.7ft 2s 13 13 mph 1022.1mb 58f 59f
2:00pm 1ft 2s 11 13 mph 1022.4mb 57f 58f
1:00pm 1ft 3s 9 13 mph 1022.7mb 57f 57f
12:00pm 0.7ft 2s 9 11 mph 1022.7mb 57f 56f
11:00am 0.7ft 4s 9 11 mph 1022.9mb 56f 55f
10:00am 1ft 3s 9 9 mph 1022.8mb 56f 55f
9:00am 1ft 3s 9 11 mph 1022.7mb 56f 55f
8:00am 0.7ft 2s 11 16 mph 1022.3mb 56f 55f
7:00am 0.7ft 3s 7 9 mph 1021.7mb 56f 54f
6:00am 0.7ft 2s 7 9 mph 1021.4mb 56f 54f
5:00am 0.7ft 7s 7 9 mph 1020.9mb 56f 54f
4:00am 0.3ft 2s 7 9 mph 1020.4mb 55f 55f
3:00am 0.7ft 3s 7 9 mph 1019.9mb 55f 55f
2:00am 0.7ft 3s 11 13 mph 1019.5mb 55f 56f
1:00am 0.3ft 2s 13 16 mph 1019.5mb 54f 56f
12:00am 0.3ft 2s 9 11 mph 1019.4mb 54f 56f
Fri 05/19 11:00pm 0.7ft 4s 9 11 mph 1019.5mb 55f 57f
10:00pm 0.3ft 2s 11 13 mph 1019.5mb 55f 57f
8:00pm 0.3ft 5s 9 9 mph 1019.4mb 58f 58f
7:00pm 0.3ft 6s 7 9 mph 1019.5mb 59f 58f
6:00pm 0.3ft 2s 4 7 mph 1019.9mb 59f 58f
5:00pm 0.3ft 5s 4 4 mph 1020.1mb 58f 59f
4:00pm 0.3ft 4s 2 4 mph 1020.2mb 59f 58f
3:00pm 0.3ft 6s 2 2 mph 1020.6mb 60f 58f
2:00pm 0.3ft 6s 2 4 mph 1020.7mb 59f 57f
1:00pm 0.3ft 3s  -  mph 1020.7mb 57f 58f